Time;durP1;ratioP1;P1;durP2;ratioP2;P2;SDS_P1;SDS_P2;PMS_P1;PMS_P2;Temp;Humidity;BMP_temperature;BMP_pressure;BME280_temperature;BME280_humidity;BME280_pressure;Samples;Min_cycle;Max_cycle;Signal;HPM_P1;HPM_P2
2022/09/22 00:00:09;;;;;;;6.15;3.83;;;14.60;99.90;;;;;;1043807;28;20032;-69
2022/09/22 00:00:42;;;;;;;7.80;3.30;;;14.60;99.90;;;;;;1035821;28;20063;-69
2022/09/22 00:01:16;;;;;;;7.25;3.65;;;14.60;99.90;;;;;;1036600;28;20096;-69
2022/09/22 00:01:47;;;;;;;6.60;3.05;;;14.60;99.90;;;;;;1039368;28;20422;-70
2022/09/22 00:02:17;;;;;;;5.33;3.30;;;14.60;99.90;;;;;;1035438;28;20500;-69
2022/09/22 00:02:48;;;;;;;5.37;3.43;;;14.60;99.90;;;;;;1035222;28;20041;-70
2022/09/22 00:03:18;;;;;;;5.33;3.30;;;14.60;99.90;;;;;;1034991;28;20120;-69
2022/09/22 00:03:52;;;;;;;6.87;3.30;;;14.60;99.90;;;;;;1036036;28;20026;-69
2022/09/22 00:04:23;;;;;;;4.28;3.10;;;14.60;99.90;;;;;;1035513;28;20187;-69
2022/09/22 00:04:53;;;;;;;4.93;3.73;;;14.60;99.90;;;;;;1035089;28;20773;-69
2022/09/22 00:05:25;;;;;;;5.27;3.10;;;14.60;99.90;;;;;;1036975;28;20069;-71
2022/09/22 00:06:19;;;;;;;5.88;3.10;;;14.60;99.90;;;;;;1039252;28;20380;-69
2022/09/22 00:06:54;;;;;;;5.97;3.05;;;14.60;99.90;;;;;;1031409;28;20030;-69
2022/09/22 00:07:24;;;;;;;5.40;3.47;;;14.60;99.90;;;;;;1035954;28;20125;-69
2022/09/22 00:07:55;;;;;;;6.13;3.40;;;14.60;99.90;;;;;;1039294;28;20020;-70
2022/09/22 00:08:27;;;;;;;4.47;3.47;;;14.60;99.90;;;;;;1039327;28;20024;-69
2022/09/22 00:08:59;;;;;;;5.07;3.17;;;14.60;99.90;;;;;;1040359;28;20020;-69
2022/09/22 00:09:30;;;;;;;10.15;4.03;;;14.60;99.90;;;;;;1035621;28;20022;-69
2022/09/22 00:10:00;;;;;;;3.93;3.07;;;14.60;99.90;;;;;;1035197;28;20013;-70
2022/09/22 00:10:31;;;;;;;4.53;2.77;;;14.60;99.90;;;;;;1037256;28;20018;-70
2022/09/22 00:11:12;;;;;;;4.83;3.40;;;14.60;99.90;;;;;;1039332;28;20018;-69
2022/09/22 00:11:45;;;;;;;4.82;3.40;;;14.60;99.90;;;;;;1037499;28;20535;-73
2022/09/22 00:12:16;;;;;;;7.07;3.63;;;14.60;99.90;;;;;;1037782;28;20033;-69
2022/09/22 00:12:50;;;;;;;7.57;3.47;;;14.60;99.90;;;;;;1035077;28;20068;-69
2022/09/22 00:13:20;;;;;;;9.27;4.05;;;14.50;99.90;;;;;;1035939;28;20026;-70
2022/09/22 00:14:04;;;;;;;5.10;3.20;;;14.60;99.90;;;;;;1039149;28;20028;-71
2022/09/22 00:14:34;;;;;;;4.68;3.17;;;14.50;99.90;;;;;;1039610;28;20033;-69
2022/09/22 00:15:05;;;;;;;8.37;3.57;;;14.60;99.90;;;;;;1039814;28;20017;-69
2022/09/22 00:15:36;;;;;;;4.88;3.53;;;14.50;99.90;;;;;;1039152;28;20029;-69
2022/09/22 00:16:08;;;;;;;7.27;3.97;;;14.50;99.90;;;;;;1035721;28;20022;-69
2022/09/22 00:16:43;;;;;;;4.68;3.13;;;14.50;99.90;;;;;;1035416;28;20029;-69
2022/09/22 00:17:14;;;;;;;6.25;3.40;;;14.50;99.90;;;;;;1037354;28;20022;-69
2022/09/22 00:17:44;;;;;;;4.93;3.10;;;14.50;99.90;;;;;;1038897;28;20017;-70
2022/09/22 00:18:15;;;;;;;3.93;3.20;;;14.50;99.90;;;;;;1035430;28;20033;-70
2022/09/22 00:18:45;;;;;;;6.10;3.40;;;14.50;99.90;;;;;;1034907;28;20029;-69
2022/09/22 00:19:24;;;;;;;4.50;3.30;;;14.50;99.90;;;;;;1035388;28;20500;-69
2022/09/22 00:19:55;;;;;;;4.97;3.10;;;14.50;99.90;;;;;;1034814;28;20061;-70
2022/09/22 00:20:25;;;;;;;4.97;3.50;;;14.50;99.90;;;;;;1035514;28;20381;-69
2022/09/22 00:20:56;;;;;;;5.53;3.47;;;14.50;99.90;;;;;;1035097;28;20061;-69
2022/09/22 00:21:27;;;;;;;5.40;3.30;;;14.50;99.90;;;;;;1038590;28;20023;-69
2022/09/22 00:21:57;;;;;;;3.90;2.70;;;14.40;99.90;;;;;;1035601;28;20022;-70
2022/09/22 00:22:28;;;;;;;5.75;3.30;;;14.50;99.90;;;;;;1035549;28;20022;-69
2022/09/22 00:22:59;;;;;;;4.93;3.53;;;14.50;99.90;;;;;;1037093;28;20526;-69
2022/09/22 00:23:30;;;;;;;4.70;3.30;;;14.40;99.90;;;;;;1039666;28;20018;-69
2022/09/22 00:24:02;;;;;;;5.53;3.22;;;14.40;99.90;;;;;;1035456;28;20014;-69
2022/09/22 00:24:33;;;;;;;7.53;3.33;;;14.40;99.90;;;;;;1037996;28;20068;-69
2022/09/22 00:25:05;;;;;;;3.97;2.93;;;14.40;99.90;;;;;;1039256;28;20021;-70
2022/09/22 00:25:38;;;;;;;6.07;3.50;;;14.40;99.90;;;;;;1039197;28;20362;-69
2022/09/22 00:26:12;;;;;;;4.47;3.47;;;14.40;99.90;;;;;;1039105;28;20049;-69
2022/09/22 00:26:43;;;;;;;4.80;2.97;;;14.40;99.90;;;;;;1035104;28;20583;-70
2022/09/22 00:27:13;;;;;;;7.30;3.37;;;14.40;99.90;;;;;;1033309;28;20569;-69
2022/09/22 00:27:44;;;;;;;5.43;3.17;;;14.40;99.90;;;;;;1027795;28;20067;-70
2022/09/22 00:28:14;;;;;;;4.40;2.77;;;14.40;99.90;;;;;;1037581;28;20014;-69
2022/09/22 00:28:46;;;;;;;4.80;2.73;;;14.40;99.90;;;;;;1039458;28;20080;-69
2022/09/22 00:29:17;;;;;;;4.30;2.90;;;14.40;99.90;;;;;;1039248;28;20017;-70
2022/09/22 00:29:49;;;;;;;4.80;3.30;;;14.40;99.90;;;;;;1039282;28;20030;-69
2022/09/22 00:30:20;;;;;;;5.43;3.10;;;14.30;99.90;;;;;;1039330;28;20260;-69
2022/09/22 00:30:51;;;;;;;7.37;3.37;;;14.40;99.90;;;;;;1039125;28;20483;-69
2022/09/22 00:31:23;;;;;;;5.07;3.10;;;14.30;99.90;;;;;;1036361;28;20500;-70
2022/09/22 00:31:55;;;;;;;5.43;3.30;;;14.30;99.90;;;;;;1036430;28;20016;-69
2022/09/22 00:32:26;;;;;;;7.68;3.47;;;14.30;99.90;;;;;;1035348;28;20141;-69
2022/09/22 00:32:57;;;;;;;3.47;3.13;;;14.30;99.90;;;;;;1037092;28;20018;-68
2022/09/22 00:33:27;;;;;;;6.10;3.50;;;14.30;99.90;;;;;;1039110;28;20013;-69
2022/09/22 00:33:58;;;;;;;4.50;2.80;;;14.30;99.90;;;;;;1039482;28;20017;-69
2022/09/22 00:34:28;;;;;;;4.37;2.83;;;14.30;99.90;;;;;;1039122;28;20083;-69
2022/09/22 00:34:59;;;;;;;4.97;3.13;;;14.30;99.90;;;;;;1039291;28;20020;-69
2022/09/22 00:35:29;;;;;;;4.00;2.80;;;14.30;99.90;;;;;;1039377;28;20009;-69
2022/09/22 00:36:01;;;;;;;3.17;2.83;;;14.30;99.90;;;;;;1038528;28;20673;-69
2022/09/22 00:36:32;;;;;;;3.58;2.70;;;14.30;99.90;;;;;;1033672;28;20014;-69
2022/09/22 00:37:03;;;;;;;4.05;3.10;;;14.30;99.90;;;;;;1031533;28;20010;-69
2022/09/22 00:37:34;;;;;;;4.67;3.00;;;14.30;99.90;;;;;;1035224;28;20024;-70
2022/09/22 00:38:05;;;;;;;4.33;3.03;;;14.30;99.90;;;;;;1035451;28;20018;-69
2022/09/22 00:38:40;;;;;;;9.88;2.90;;;14.30;99.90;;;;;;1038809;28;20044;-71
2022/09/22 00:39:11;;;;;;;3.83;2.83;;;14.30;99.90;;;;;;1035296;28;20025;-69
2022/09/22 00:39:42;;;;;;;4.25;2.97;;;14.20;99.90;;;;;;1037207;28;20101;-69
2022/09/22 00:40:12;;;;;;;5.83;3.13;;;14.20;99.90;;;;;;1032120;28;20018;-69
2022/09/22 00:40:43;;;;;;;3.97;2.73;;;14.30;99.90;;;;;;1030963;28;20069;-70
2022/09/22 00:41:19;;;;;;;5.77;2.70;;;14.30;99.90;;;;;;1035525;28;20491;-69
2022/09/22 00:41:51;;;;;;;5.00;3.25;;;14.30;99.90;;;;;;1037597;28;20021;-71
2022/09/22 00:42:22;;;;;;;5.63;3.28;;;14.30;99.90;;;;;;1039495;28;20093;-69
2022/09/22 00:42:53;;;;;;;4.85;3.08;;;14.30;99.90;;;;;;1039025;28;20333;-70
2022/09/22 00:43:26;;;;;;;5.83;2.83;;;14.30;99.90;;;;;;1039427;28;20540;-69
2022/09/22 00:44:23;;;;;;;4.68;3.28;;;14.30;99.90;;;;;;1039034;28;20013;-69
2022/09/22 00:44:54;;;;;;;5.90;2.95;;;14.30;99.90;;;;;;1038820;28;20021;-70
2022/09/22 00:45:25;;;;;;;3.63;2.53;;;14.30;99.90;;;;;;1039457;28;20018;-69
2022/09/22 00:46:07;;;;;;;3.23;2.43;;;14.30;99.90;;;;;;1035199;28;20014;-70
2022/09/22 00:46:40;;;;;;;6.60;3.17;;;14.30;99.90;;;;;;1035061;28;20018;-69
2022/09/22 00:47:29;;;;;;;3.92;2.60;;;14.30;99.90;;;;;;1031021;28;20062;-70
2022/09/22 00:48:00;;;;;;;4.28;2.63;;;14.30;99.90;;;;;;1034676;28;20022;-68
2022/09/22 00:48:36;;;;;;;4.10;2.57;;;14.40;99.90;;;;;;1039574;28;20032;-70
2022/09/22 00:49:08;;;;;;;4.25;2.53;;;14.30;99.90;;;;;;1039505;28;20445;-70
2022/09/22 00:49:56;;;;;;;5.15;2.63;;;14.40;99.90;;;;;;1039801;28;20024;-69
2022/09/22 00:50:27;;;;;;;3.08;2.50;;;14.40;99.90;;;;;;1039040;28;20021;-69
2022/09/22 00:51:01;;;;;;;4.63;2.90;;;14.30;99.90;;;;;;1039224;28;20048;-69
2022/09/22 00:51:35;;;;;;;6.68;3.05;;;14.30;99.90;;;;;;1038860;28;20017;-70
2022/09/22 00:52:06;;;;;;;3.35;2.50;;;14.30;99.90;;;;;;1033818;28;20687;-69
2022/09/22 00:52:51;;;;;;;4.17;2.90;;;14.30;99.90;;;;;;1035781;28;20770;-69
2022/09/22 00:53:24;;;;;;;5.07;2.80;;;14.30;99.90;;;;;;1031330;28;20455;-69
2022/09/22 00:53:56;;;;;;;6.80;2.70;;;14.30;99.90;;;;;;1040839;28;20102;-69
2022/09/22 00:54:27;;;;;;;3.60;2.88;;;14.30;99.90;;;;;;1040665;28;20173;-69
2022/09/22 00:55:01;;;;;;;5.40;3.23;;;14.30;99.90;;;;;;1035117;28;20026;-69
2022/09/22 00:55:37;;;;;;;4.70;2.58;;;14.30;99.90;;;;;;1033704;28;20450;-70
2022/09/22 00:56:30;;;;;;;5.50;2.70;;;14.30;99.90;;;;;;1035412;28;20476;-70
2022/09/22 00:57:09;;;;;;;5.22;3.22;;;14.30;99.90;;;;;;1032127;28;20030;-69
2022/09/22 00:57:41;;;;;;;9.85;2.60;;;14.30;99.90;;;;;;1030915;28;20488;-69
2022/09/22 00:58:17;;;;;;;3.72;2.70;;;14.30;99.90;;;;;;1038465;28;20013;-68
2022/09/22 00:58:52;;;;;;;3.80;2.40;;;14.30;99.90;;;;;;1034900;28;20703;-69
2022/09/22 00:59:24;;;;;;;4.88;2.80;;;14.20;99.90;;;;;;1036873;28;20156;-70
2022/09/22 00:59:55;;;;;;;4.28;2.60;;;14.20;99.90;;;;;;1035181;28;20101;-69
2022/09/22 01:00:26;;;;;;;4.00;2.30;;;14.20;99.90;;;;;;1037561;28;20075;-70
2022/09/22 01:00:57;;;;;;;3.10;2.40;;;14.30;99.90;;;;;;1042988;28;20048;-69
2022/09/22 01:01:28;;;;;;;8.20;2.50;;;14.20;99.90;;;;;;1039731;28;20100;-69
2022/09/22 01:01:58;;;;;;;3.27;2.50;;;14.20;99.90;;;;;;1036491;28;20030;-69
2022/09/22 01:02:29;;;;;;;3.73;2.40;;;14.20;99.90;;;;;;1036702;28;20057;-71
2022/09/22 01:03:04;;;;;;;3.60;2.78;;;14.20;99.90;;;;;;1036187;28;20101;-69
2022/09/22 01:03:39;;;;;;;4.15;2.38;;;14.20;99.90;;;;;;1039389;28;20018;-69
2022/09/22 01:04:11;;;;;;;5.40;2.83;;;14.20;99.90;;;;;;1035251;28;20014;-70
2022/09/22 01:04:42;;;;;;;3.45;2.35;;;14.20;99.90;;;;;;1036826;28;20029;-69
2022/09/22 01:05:14;;;;;;;4.22;2.42;;;14.20;99.90;;;;;;1039478;28;20014;-69
2022/09/22 01:05:47;;;;;;;4.03;2.60;;;14.20;99.90;;;;;;1039533;28;20025;-72
2022/09/22 01:06:25;;;;;;;2.75;2.45;;;14.20;99.90;;;;;;1039452;28;20028;-69
2022/09/22 01:06:58;;;;;;;3.40;2.30;;;14.20;99.90;;;;;;1039770;28;20022;-69
2022/09/22 01:07:30;;;;;;;4.53;2.75;;;14.20;99.90;;;;;;1039508;28;20028;-69
2022/09/22 01:08:02;;;;;;;3.72;2.40;;;14.20;99.90;;;;;;1039031;28;20006;-70
2022/09/22 01:08:33;;;;;;;2.85;2.10;;;14.20;99.90;;;;;;1039385;28;20018;-69
2022/09/22 01:09:04;;;;;;;4.55;2.58;;;14.10;99.90;;;;;;1039092;28;20029;-70
2022/09/22 01:09:35;;;;;;;4.05;2.33;;;14.20;99.90;;;;;;1038155;28;20100;-69
2022/09/22 01:10:06;;;;;;;5.60;2.60;;;14.20;99.90;;;;;;1039338;28;20025;-70
2022/09/22 01:10:37;;;;;;;3.97;2.50;;;14.10;99.90;;;;;;1038959;28;20045;-69
2022/09/22 01:11:08;;;;;;;4.13;2.78;;;14.20;99.90;;;;;;1039469;28;20034;-69
2022/09/22 01:11:40;;;;;;;7.30;2.50;;;14.10;99.90;;;;;;1038793;28;20024;-70
2022/09/22 01:12:11;;;;;;;3.78;2.60;;;14.10;99.90;;;;;;1035527;28;20053;-70
2022/09/22 01:13:11;;;;;;;3.17;2.35;;;14.10;99.90;;;;;;1038988;28;20159;-69
2022/09/22 01:14:02;;;;;;;4.03;2.20;;;14.10;99.90;;;;;;1031079;28;20030;-69
2022/09/22 01:14:41;;;;;;;3.70;2.40;;;14.10;99.90;;;;;;1039157;28;20179;-69
2022/09/22 01:15:49;;;;;;;4.57;2.47;;;14.10;99.90;;;;;;1030955;28;20018;-69
2022/09/22 01:16:39;;;;;;;3.40;2.42;;;14.10;99.90;;;;;;1032114;28;20038;-69
2022/09/22 01:17:34;;;;;;;4.75;2.55;;;14.10;99.90;;;;;;1043449;28;20021;-69
2022/09/22 01:18:26;;;;;;;4.53;2.67;;;14.10;99.90;;;;;;1039089;28;20060;-69
2022/09/22 01:19:24;;;;;;;2.95;2.20;;;14.10;99.90;;;;;;1037010;28;20096;-69
2022/09/22 01:20:27;;;;;;;4.63;2.83;;;14.10;99.90;;;;;;1035288;28;20010;-69
2022/09/22 01:21:12;;;;;;;3.45;2.72;;;14.00;99.90;;;;;;1031040;28;20038;-68
2022/09/22 01:22:25;;;;;;;4.38;2.33;;;14.00;99.90;;;;;;1035386;28;20018;-69
2022/09/22 01:23:19;;;;;;;3.70;2.30;;;14.00;99.90;;;;;;1032467;28;20788;-69
2022/09/22 01:24:03;;;;;;;3.20;2.33;;;;;;;;;;1035166;28;20413;-70
2022/09/22 01:24:48;;;;;;;3.03;1.95;;;14.00;99.90;;;;;;1035835;28;20099;-69
2022/09/22 01:25:53;;;;;;;4.50;2.20;;;14.00;99.90;;;;;;1035040;28;20105;-69
2022/09/22 01:26:42;;;;;;;5.00;2.40;;;14.00;99.90;;;;;;1037118;28;20353;-72
2022/09/22 01:27:46;;;;;;;3.80;2.30;;;14.10;99.90;;;;;;1035298;28;20025;-69
2022/09/22 01:28:50;;;;;;;3.47;2.25;;;14.10;99.90;;;;;;1037473;28;20071;-69
2022/09/22 01:30:00;;;;;;;3.10;2.78;;;14.10;99.90;;;;;;1039427;28;20575;-69
2022/09/22 01:30:39;;;;;;;3.22;2.20;;;14.10;99.90;;;;;;1031926;28;20903;-70
2022/09/22 01:31:28;;;;;;;3.22;2.33;;;14.10;99.90;;;;;;1035516;28;20044;-69
2022/09/22 01:32:25;;;;;;;2.85;2.10;;;14.10;99.90;;;;;;1038783;28;20100;-68
2022/09/22 01:32:55;;;;;;;5.30;2.72;;;14.10;99.90;;;;;;1033957;28;20259;-69
2022/09/22 01:33:41;;;;;;;4.40;2.40;;;14.10;99.90;;;;;;1039576;28;20558;-69
2022/09/22 01:34:46;;;;;;;3.60;2.75;;;14.10;99.90;;;;;;1039391;28;20104;-69
2022/09/22 01:35:47;;;;;;;3.38;2.33;;;14.10;99.90;;;;;;1022978;29;20027;-68
2022/09/22 01:36:33;;;;;;;3.90;2.72;;;14.10;99.90;;;;;;1026126;28;20521;-68
2022/09/22 01:37:15;;;;;;;6.72;2.78;;;14.00;99.90;;;;;;1023106;29;20171;-69
2022/09/22 01:38:06;;;;;;;3.92;2.40;;;14.00;99.90;;;;;;1023105;28;20755;-69
2022/09/22 01:38:49;;;;;;;4.10;2.22;;;14.00;99.90;;;;;;1038277;28;20121;-69
2022/09/22 01:39:36;;;;;;;2.92;2.13;;;14.00;99.90;;;;;;1039905;28;20417;-68
2022/09/22 01:40:18;;;;;;;4.20;2.50;;;14.00;99.90;;;;;;1033421;28;20109;-69
2022/09/22 01:40:59;;;;;;;5.30;2.50;;;14.00;99.90;;;;;;1035045;28;20022;-68
2022/09/22 01:41:55;;;;;;;3.10;2.25;;;14.00;99.90;;;;;;1038582;28;20021;-69
2022/09/22 01:42:36;;;;;;;3.85;2.10;;;14.00;99.90;;;;;;1035520;28;20022;-69
2022/09/22 01:43:17;;;;;;;3.20;2.42;;;14.00;99.90;;;;;;1038042;28;20026;-68
2022/09/22 01:43:58;;;;;;;2.88;2.50;;;14.00;99.90;;;;;;1031155;28;20019;-69
2022/09/22 01:44:48;;;;;;;4.50;2.20;;;14.00;99.90;;;;;;1031532;28;20023;-69
2022/09/22 01:45:23;;;;;;;3.38;2.25;;;13.90;99.90;;;;;;1035941;28;20487;-68
2022/09/22 01:45:54;;;;;;;3.67;2.33;;;13.90;99.90;;;;;;1035294;28;20072;-68
2022/09/22 01:46:33;;;;;;;3.53;1.70;;;13.90;99.90;;;;;;1037802;28;20080;-68
2022/09/22 01:47:16;;;;;;;2.80;2.08;;;13.90;99.90;;;;;;1035364;28;20261;-68
2022/09/22 01:47:55;;;;;;;3.50;2.15;;;13.90;99.90;;;;;;1035046;28;20021;-69
2022/09/22 01:48:30;;;;;;;3.70;2.10;;;13.90;99.90;;;;;;1039128;28;20574;-68
2022/09/22 01:49:06;;;;;;;3.35;2.42;;;13.90;99.90;;;;;;1038932;28;20018;-70
2022/09/22 01:49:42;;;;;;;3.15;2.33;;;13.90;99.90;;;;;;1035798;28;20079;-68
2022/09/22 01:50:19;;;;;;;2.75;2.08;;;13.90;99.90;;;;;;1036353;28;20022;-69
2022/09/22 01:51:11;;;;;;;3.95;2.42;;;13.90;99.90;;;;;;1039157;28;20729;-68
2022/09/22 01:51:52;;;;;;;3.53;2.35;;;13.90;99.90;;;;;;1031437;28;20022;-69
2022/09/22 01:52:27;;;;;;;3.80;2.20;;;13.90;99.90;;;;;;1031387;28;20096;-67
2022/09/22 01:53:02;;;;;;;5.25;2.65;;;13.90;99.90;;;;;;1031142;28;20014;-69
2022/09/22 01:53:42;;;;;;;4.60;2.53;;;13.90;99.90;;;;;;1032253;28;20036;-70
2022/09/22 01:54:17;;;;;;;3.92;2.10;;;13.90;99.90;;;;;;1031055;28;20030;-69
2022/09/22 01:54:57;;;;;;;2.97;1.85;;;13.90;99.90;;;;;;1033438;28;20037;-69
2022/09/22 01:55:32;;;;;;;3.30;2.45;;;13.90;99.90;;;;;;1031198;28;20032;-68
2022/09/22 01:56:08;;;;;;;4.43;2.40;;;13.80;99.90;;;;;;1033567;28;20019;-68
2022/09/22 01:56:41;;;;;;;3.25;1.85;;;13.80;99.90;;;;;;1030849;28;20023;-68
2022/09/22 01:57:17;;;;;;;3.10;2.10;;;13.80;99.90;;;;;;1038083;28;20076;-69
2022/09/22 01:57:56;;;;;;;3.47;2.30;;;13.80;99.90;;;;;;1043116;28;20017;-70
2022/09/22 01:58:38;;;;;;;3.42;2.45;;;13.80;99.90;;;;;;1043106;28;20021;-70
2022/09/22 01:59:10;;;;;;;2.50;1.98;;;13.80;99.90;;;;;;1036099;28;20053;-68
2022/09/22 01:59:45;;;;;;;3.30;2.35;;;13.80;99.90;;;;;;1037001;28;20088;-69
2022/09/22 02:00:16;;;;;;;3.90;2.10;;;13.80;99.90;;;;;;1039526;28;20021;-68
2022/09/22 02:00:55;;;;;;;5.25;2.80;;;13.80;99.90;;;;;;1039079;28;20021;-68
2022/09/22 02:01:32;;;;;;;2.94;2.06;;;13.80;99.90;;;;;;1039548;28;20014;-69
2022/09/22 02:02:10;;;;;;;4.70;1.70;;;13.80;99.90;;;;;;1037295;28;20013;-68
2022/09/22 02:03:03;;;;;;;4.68;2.88;;;13.80;99.90;;;;;;1034738;28;20112;-69
2022/09/22 02:03:46;;;;;;;2.45;1.95;;;13.80;99.90;;;;;;1026898;28;20027;-68
2022/09/22 02:04:24;;;;;;;3.60;2.08;;;13.80;99.90;;;;;;1031238;28;20115;-69
2022/09/22 02:04:58;;;;;;;3.88;2.30;;;13.80;99.90;;;;;;1042014;28;20516;-68
2022/09/22 02:05:42;;;;;;;2.78;2.05;;;13.80;99.90;;;;;;1042542;28;20135;-69
2022/09/22 02:06:18;;;;;;;2.83;2.10;;;13.80;99.90;;;;;;1039577;28;20013;-69
2022/09/22 02:06:54;;;;;;;2.67;1.92;;;13.80;99.90;;;;;;1040353;28;20020;-68
2022/09/22 02:07:33;;;;;;;2.30;1.95;;;13.80;99.90;;;;;;1038870;28;20018;-69
2022/09/22 02:08:10;;;;;;;3.53;2.10;;;13.80;99.90;;;;;;1038939;28;20066;-69
2022/09/22 02:08:50;;;;;;;3.00;1.80;;;13.80;99.90;;;;;;1038861;28;20669;-69
2022/09/22 02:09:25;;;;;;;3.55;2.33;;;13.80;99.90;;;;;;1034276;28;20551;-68
2022/09/22 02:09:59;;;;;;;3.70;2.50;;;13.90;99.90;;;;;;1038908;28;20024;-68
2022/09/22 02:10:35;;;;;;;3.72;2.45;;;13.90;99.90;;;;;;1038889;28;20018;-68
2022/09/22 02:11:12;;;;;;;2.60;1.65;;;13.90;99.90;;;;;;1037352;28;20018;-69
2022/09/22 02:11:43;;;;;;;2.67;1.92;;;13.80;99.90;;;;;;1035225;28;20022;-68
2022/09/22 02:12:17;;;;;;;3.20;2.20;;;13.90;99.90;;;;;;1035384;28;20033;-68
2022/09/22 02:12:48;;;;;;;3.75;2.20;;;13.90;99.90;;;;;;1039239;28;20122;-68
2022/09/22 02:13:18;;;;;;;1.70;1.57;;;13.90;99.90;;;;;;1039268;28;20014;-69
2022/09/22 02:13:49;;;;;;;3.93;2.00;;;13.90;99.90;;;;;;1039275;28;20116;-69
2022/09/22 02:14:20;;;;;;;2.78;2.05;;;13.90;99.90;;;;;;1038944;28;20013;-68
2022/09/22 02:14:51;;;;;;;2.97;2.20;;;13.90;99.90;;;;;;1039404;28;20029;-70
2022/09/22 02:16:13;;;;;;;3.17;2.15;;;13.90;99.90;;;;;;1032811;28;20073;-68
2022/09/22 02:16:44;;;;;;;2.83;1.73;;;13.90;99.90;;;;;;1038907;28;20010;-69
2022/09/22 02:17:15;;;;;;;4.40;1.83;;;13.80;99.90;;;;;;1043126;28;20020;-68
2022/09/22 02:17:45;;;;;;;2.93;2.00;;;13.90;99.90;;;;;;1038752;28;20613;-68
2022/09/22 02:18:24;;;;;;;2.70;1.90;;;13.80;99.90;;;;;;1035116;28;20646;-68
2022/09/22 02:19:15;;;;;;;3.20;2.13;;;13.80;99.90;;;;;;1035074;28;20712;-68
2022/09/22 02:19:46;;;;;;;2.80;2.13;;;13.80;99.90;;;;;;1035078;28;21287;-68
2022/09/22 02:20:19;;;;;;;2.80;1.73;;;13.80;99.90;;;;;;1035309;28;20470;-68
2022/09/22 02:20:51;;;;;;;3.40;2.42;;;13.80;99.90;;;;;;1035144;28;20014;-70
2022/09/22 02:21:26;;;;;;;2.80;2.30;;;13.80;99.90;;;;;;1037024;28;20105;-68
2022/09/22 02:21:57;;;;;;;3.55;1.90;;;13.80;99.90;;;;;;1037806;28;20017;-68
2022/09/22 02:22:31;;;;;;;5.28;2.05;;;13.80;99.90;;;;;;1035188;28;20022;-69
2022/09/22 02:23:01;;;;;;;4.13;1.55;;;13.80;99.90;;;;;;1037064;28;20021;-68
2022/09/22 02:23:33;;;;;;;1.97;1.77;;;13.80;99.90;;;;;;1038964;28;20022;-69
2022/09/22 02:24:04;;;;;;;2.95;1.83;;;13.80;99.90;;;;;;1039072;28;20095;-68
2022/09/22 02:24:40;;;;;;;3.22;2.10;;;13.80;99.90;;;;;;1036881;28;20014;-69
2022/09/22 02:25:11;;;;;;;2.85;1.98;;;13.80;99.90;;;;;;1038972;28;20064;-70
2022/09/22 02:25:43;;;;;;;3.28;1.80;;;13.70;99.90;;;;;;1039187;28;20886;-68
2022/09/22 02:26:22;;;;;;;2.33;1.80;;;13.80;99.90;;;;;;1038847;28;20810;-70
2022/09/22 02:26:55;;;;;;;4.00;2.35;;;13.70;99.90;;;;;;1035557;28;20113;-69
2022/09/22 02:27:35;;;;;;;3.13;2.00;;;13.70;99.90;;;;;;1039000;28;20388;-68
2022/09/22 02:28:06;;;;;;;3.10;1.98;;;13.70;99.90;;;;;;1038673;28;20112;-68
2022/09/22 02:28:39;;;;;;;3.63;2.00;;;13.70;99.90;;;;;;1038484;28;20020;-69
2022/09/22 02:29:11;;;;;;;3.38;2.15;;;13.70;99.90;;;;;;1039172;28;20090;-68
2022/09/22 02:29:47;;;;;;;2.58;1.98;;;13.70;99.90;;;;;;1040672;28;20063;-69
2022/09/22 02:30:18;;;;;;;2.67;1.85;;;13.70;99.90;;;;;;1037577;28;20049;-68
2022/09/22 02:30:53;;;;;;;2.80;2.13;;;13.70;99.90;;;;;;1034703;28;20099;-73
2022/09/22 02:31:27;;;;;;;2.47;1.95;;;13.70;99.90;;;;;;1037157;28;20105;-69
2022/09/22 02:32:01;;;;;;;3.65;2.10;;;13.70;99.90;;;;;;1038457;28;20361;-68
2022/09/22 02:32:34;;;;;;;2.60;1.92;;;13.70;99.90;;;;;;1030659;28;20030;-68
2022/09/22 02:33:05;;;;;;;2.08;1.83;;;13.60;99.90;;;;;;1036377;28;20033;-68
2022/09/22 02:33:38;;;;;;;2.10;1.50;;;13.70;99.90;;;;;;1034899;28;20108;-68
2022/09/22 02:34:09;;;;;;;3.15;1.88;;;13.60;99.90;;;;;;1035211;28;20026;-69
2022/09/22 02:34:40;;;;;;;2.90;2.00;;;13.60;99.90;;;;;;1037090;28;20014;-68
2022/09/22 02:35:11;;;;;;;3.20;1.77;;;13.60;99.90;;;;;;1038664;28;20060;-69
2022/09/22 02:35:47;;;;;;;3.40;1.73;;;13.60;99.90;;;;;;1038882;28;20026;-69
2022/09/22 02:36:41;;;;;;;3.35;1.92;;;13.60;99.90;;;;;;1037087;28;20049;-68
2022/09/22 02:37:24;;;;;;;3.30;2.05;;;13.60;99.90;;;;;;1039044;28;20515;-69
2022/09/22 02:38:11;;;;;;;2.50;1.60;;;13.60;99.90;;;;;;1038598;28;20017;-69
2022/09/22 02:39:03;;;;;;;4.30;1.65;;;13.60;99.90;;;;;;1034414;28;20025;-68
2022/09/22 02:40:09;;;;;;;5.10;2.55;;;13.60;99.90;;;;;;1038799;28;20104;-69
2022/09/22 02:40:42;;;;;;;3.70;1.90;;;13.60;99.90;;;;;;1029048;28;20760;-69
2022/09/22 02:41:23;;;;;;;4.38;1.55;;;13.60;99.90;;;;;;1033907;28;20014;-69
2022/09/22 02:42:24;;;;;;;2.53;1.63;;;13.60;99.90;;;;;;1036051;28;20022;-69
2022/09/22 02:43:23;;;;;;;2.47;1.60;;;13.60;99.90;;;;;;1033532;28;20461;-68
2022/09/22 02:44:11;;;;;;;2.50;1.85;;;13.60;99.90;;;;;;1034558;28;20033;-68
2022/09/22 02:44:56;;;;;;;2.97;1.83;;;13.60;99.90;;;;;;1037080;28;20137;-69
2022/09/22 02:45:38;;;;;;;3.88;1.70;;;13.50;99.90;;;;;;1034755;28;20026;-68
2022/09/22 02:46:29;;;;;;;4.25;1.70;;;13.50;99.90;;;;;;1039398;28;20022;-69
2022/09/22 02:47:06;;;;;;;4.57;2.00;;;13.50;99.90;;;;;;1039705;28;20144;-68
2022/09/22 02:47:56;;;;;;;2.47;1.85;;;13.50;99.90;;;;;;1039182;28;20079;-68
2022/09/22 02:48:33;;;;;;;2.50;1.52;;;13.50;99.90;;;;;;1032617;28;20030;-69
2022/09/22 02:49:08;;;;;;;3.92;2.00;;;13.60;99.90;;;;;;1039342;28;20025;-68
2022/09/22 02:49:42;;;;;;;3.22;1.52;;;13.60;99.90;;;;;;1039165;28;20048;-68
2022/09/22 02:50:15;;;;;;;2.60;1.77;;;13.60;99.90;;;;;;1039436;28;20084;-68
2022/09/22 02:50:46;;;;;;;2.08;1.45;;;13.60;99.90;;;;;;1038744;28;20160;-69
2022/09/22 02:51:17;;;;;;;2.23;1.63;;;13.60;99.90;;;;;;1038841;28;20075;-69
2022/09/22 02:51:49;;;;;;;2.72;1.52;;;13.60;99.90;;;;;;1039013;28;20366;-69
2022/09/22 02:52:22;;;;;;;2.30;1.40;;;13.60;99.90;;;;;;1035615;28;20029;-69
2022/09/22 02:53:00;;;;;;;2.13;1.50;;;13.60;99.90;;;;;;1036044;28;20022;-68
2022/09/22 02:53:33;;;;;;;4.10;1.73;;;13.60;99.90;;;;;;1037749;28;20025;-69
2022/09/22 02:54:05;;;;;;;3.55;1.92;;;13.60;99.90;;;;;;1035240;28;20393;-68
2022/09/22 02:54:36;;;;;;;2.78;1.77;;;13.60;99.90;;;;;;1035456;28;20046;-69
2022/09/22 02:55:08;;;;;;;2.35;1.58;;;13.60;99.90;;;;;;1035820;28;20014;-68
2022/09/22 02:55:40;;;;;;;2.67;1.70;;;13.60;99.90;;;;;;1034328;28;20133;-69
2022/09/22 02:56:11;;;;;;;2.35;1.60;;;13.60;99.90;;;;;;1034629;28;20144;-70
2022/09/22 02:56:42;;;;;;;3.53;1.70;;;13.60;99.90;;;;;;1035047;28;20026;-68
2022/09/22 02:57:12;;;;;;;2.00;1.60;;;13.70;99.90;;;;;;1034843;28;20386;-68
2022/09/22 02:57:43;;;;;;;2.10;1.63;;;13.70;99.90;;;;;;1037692;28;20048;-68
2022/09/22 02:58:15;;;;;;;2.90;1.20;;;13.60;99.90;;;;;;1036150;28;20021;-70
2022/09/22 02:58:46;;;;;;;2.30;1.60;;;13.70;99.90;;;;;;1038595;28;20032;-69
2022/09/22 02:59:16;;;;;;;2.50;1.70;;;13.60;99.90;;;;;;1039752;28;20124;-69
2022/09/22 02:59:47;;;;;;;2.90;1.40;;;13.60;99.90;;;;;;1042505;28;20024;-69
2022/09/22 03:00:17;;;;;;;3.00;1.87;;;13.60;99.90;;;;;;1037439;28;20060;-68
2022/09/22 03:00:48;;;;;;;2.83;1.90;;;13.60;99.90;;;;;;1034587;28;20018;-68
2022/09/22 03:01:18;;;;;;;2.47;1.73;;;13.60;99.90;;;;;;1034832;28;20032;-69
2022/09/22 03:01:49;;;;;;;1.90;1.60;;;13.60;99.90;;;;;;1038198;28;20037;-69
2022/09/22 03:02:19;;;;;;;3.77;1.83;;;13.60;99.90;;;;;;1037129;28;20123;-69
2022/09/22 03:02:50;;;;;;;1.73;1.37;;;13.60;99.90;;;;;;1034343;28;20528;-68
2022/09/22 03:03:21;;;;;;;2.17;1.87;;;13.50;99.90;;;;;;1034868;28;20460;-69
2022/09/22 03:03:52;;;;;;;2.72;1.60;;;13.50;99.90;;;;;;1037094;28;20029;-69
2022/09/22 03:04:22;;;;;;;1.43;1.30;;;13.50;99.90;;;;;;1039246;28;20112;-69
2022/09/22 03:04:53;;;;;;;1.53;1.20;;;13.50;99.90;;;;;;1034417;28;20026;-68
2022/09/22 03:05:24;;;;;;;2.37;1.70;;;13.50;99.90;;;;;;1037363;28;20095;-68
2022/09/22 03:05:55;;;;;;;3.28;1.60;;;13.50;99.90;;;;;;1030699;28;20030;-69
2022/09/22 03:06:25;;;;;;;2.23;1.60;;;13.50;99.90;;;;;;1033694;28;20029;-69
2022/09/22 03:06:56;;;;;;;1.93;1.30;;;13.50;99.90;;;;;;1038963;28;20265;-69
2022/09/22 03:07:26;;;;;;;1.60;1.50;;;13.50;99.90;;;;;;1038711;28;20033;-68
2022/09/22 03:07:57;;;;;;;1.60;1.30;;;13.50;99.90;;;;;;1038225;28;20092;-69
2022/09/22 03:08:28;;;;;;;1.63;1.50;;;13.50;99.90;;;;;;1039107;28;20444;-68
2022/09/22 03:08:58;;;;;;;2.07;1.40;;;13.50;99.90;;;;;;1038389;28;20527;-69
2022/09/22 03:09:29;;;;;;;1.70;1.60;;;13.50;99.90;;;;;;1039084;28;20068;-69
2022/09/22 03:09:59;;;;;;;2.33;1.60;;;13.50;99.90;;;;;;1034874;28;20084;-69
2022/09/22 03:10:30;;;;;;;1.97;1.27;;;13.40;99.90;;;;;;1034996;28;20030;-69